Time;durP1;ratioP1;P1;durP2;ratioP2;P2;SDS_P1;SDS_P2;PMS_P1;PMS_P2;Temp;Humidity;BMP_temperature;BMP_pressure;BME280_temperature;BME280_humidity;BME280_pressure;Samples;Min_cycle;Max_cycle;Signal;HPM_P1;HPM_P2
2021/12/03 00:00:14;;;;;;;2.03;0.83;;;5.00;99.90;;;;;;5090338;28;20209;-69
2021/12/03 00:02:41;;;;;;;2.10;1.40;;;5.00;99.90;;;;;;5090132;28;20270;-69
2021/12/03 00:05:10;;;;;;;4.17;1.37;;;5.10;99.90;;;;;;5090675;28;20201;-69
2021/12/03 00:07:40;;;;;;;2.73;1.20;;;5.10;99.90;;;;;;5090477;28;20259;-68
2021/12/03 00:10:08;;;;;;;6.20;1.90;;;5.10;99.90;;;;;;5090074;28;20204;-68
2021/12/03 00:12:35;;;;;;;4.60;1.37;;;5.10;99.90;;;;;;5090387;28;20213;-68
2021/12/03 00:15:05;;;;;;;6.57;2.13;;;5.10;99.90;;;;;;5089957;28;20704;-69
2021/12/03 00:17:32;;;;;;;3.37;1.40;;;5.10;99.90;;;;;;5090813;28;20201;-69
2021/12/03 00:19:59;;;;;;;4.50;2.10;;;5.10;99.90;;;;;;5089993;28;20214;-69
2021/12/03 00:22:26;;;;;;;6.23;1.90;;;5.10;99.90;;;;;;5090294;28;20208;-69
2021/12/03 00:24:53;;;;;;;2.90;1.20;;;5.10;99.90;;;;;;5090012;28;20202;-69
2021/12/03 00:27:20;;;;;;;3.67;1.30;;;5.10;99.90;;;;;;5090001;28;20201;-69
2021/12/03 00:29:47;;;;;;;1.37;0.87;;;5.10;99.90;;;;;;5089475;28;20210;-69
2021/12/03 00:32:16;;;;;;;2.37;1.10;;;5.10;99.90;;;;;;5089963;28;20209;-69
2021/12/03 00:34:43;;;;;;;1.43;1.03;;;5.10;99.90;;;;;;5089884;28;20278;-69
2021/12/03 00:37:10;;;;;;;1.97;0.90;;;5.10;99.90;;;;;;5090124;28;20619;-69
2021/12/03 00:39:37;;;;;;;2.03;1.13;;;5.10;99.90;;;;;;5090026;28;20236;-69
2021/12/03 00:42:04;;;;;;;6.33;1.63;;;5.10;99.90;;;;;;5090327;28;20209;-69
2021/12/03 00:44:31;;;;;;;2.50;1.13;;;5.00;99.90;;;;;;5089834;28;20205;-69
2021/12/03 00:46:59;;;;;;;4.23;1.87;;;5.00;99.90;;;;;;5089814;28;20217;-68
2021/12/03 00:49:28;;;;;;;2.90;1.30;;;4.90;99.90;;;;;;5089979;28;20201;-69
2021/12/03 00:51:55;;;;;;;3.87;1.73;;;4.80;99.90;;;;;;5092161;28;20299;-68
2021/12/03 00:54:22;;;;;;;2.00;1.03;;;4.70;99.90;;;;;;5093472;28;20205;-69
2021/12/03 00:56:49;;;;;;;2.90;1.23;;;4.60;99.90;;;;;;5093684;28;20263;-69
2021/12/03 00:59:16;;;;;;;1.50;1.00;;;4.60;99.90;;;;;;5093238;28;20205;-68
2021/12/03 01:01:43;;;;;;;3.57;2.27;;;4.60;99.90;;;;;;5093131;28;20209;-69
2021/12/03 01:04:10;;;;;;;3.97;1.43;;;4.60;99.90;;;;;;5074165;28;20206;-69
2021/12/03 01:06:38;;;;;;;3.20;1.03;;;4.70;99.90;;;;;;5073083;28;20603;-69
2021/12/03 01:09:05;;;;;;;5.90;2.73;;;4.70;99.90;;;;;;5073513;28;20209;-69
2021/12/03 01:11:32;;;;;;;5.73;1.57;;;4.80;99.90;;;;;;5074001;28;20202;-70
2021/12/03 01:14:01;;;;;;;1.30;1.10;;;4.80;99.90;;;;;;5073297;28;20199;-69
2021/12/03 01:16:28;;;;;;;2.23;1.13;;;4.90;99.90;;;;;;5073338;28;20332;-70
2021/12/03 01:18:56;;;;;;;4.20;1.40;;;5.00;99.90;;;;;;5073468;28;20289;-70
2021/12/03 01:21:23;;;;;;;8.50;2.70;;;4.90;99.90;;;;;;5073269;28;20658;-68
2021/12/03 01:23:53;;;;;;;4.17;1.90;;;4.80;99.90;;;;;;5072913;28;20207;-68
2021/12/03 01:26:21;;;;;;;3.17;1.23;;;4.90;99.90;;;;;;5073515;28;20202;-68
2021/12/03 01:28:48;;;;;;;1.43;1.33;;;4.90;99.90;;;;;;5072550;28;20261;-69
2021/12/03 01:31:16;;;;;;;2.07;1.27;;;4.90;99.90;;;;;;5073328;28;20254;-68
2021/12/03 01:33:44;;;;;;;2.90;1.17;;;4.90;99.90;;;;;;5072863;28;20210;-69
2021/12/03 01:36:12;;;;;;;5.97;1.77;;;4.70;99.90;;;;;;5073009;28;20229;-68
2021/12/03 01:38:39;;;;;;;3.93;0.90;;;4.70;99.90;;;;;;5072875;28;20202;-69
2021/12/03 01:41:08;;;;;;;1.80;1.20;;;4.60;99.90;;;;;;5072579;28;20674;-69
2021/12/03 01:43:35;;;;;;;2.67;1.30;;;4.50;99.90;;;;;;5072899;28;20676;-70
2021/12/03 01:46:05;;;;;;;3.70;1.27;;;4.40;99.90;;;;;;5072884;28;20566;-70
2021/12/03 01:48:33;;;;;;;7.60;1.50;;;4.40;99.90;;;;;;5072970;28;20214;-68
2021/12/03 01:51:01;;;;;;;4.63;1.50;;;4.40;99.90;;;;;;5072611;28;20566;-68
2021/12/03 01:53:32;;;;;;;3.83;1.80;;;4.40;99.90;;;;;;5072511;28;20255;-68
2021/12/03 01:56:02;;;;;;;2.77;1.97;;;4.30;99.90;;;;;;5071902;28;20230;-69
2021/12/03 01:58:31;;;;;;;3.50;1.40;;;4.30;99.90;;;;;;5072969;28;20260;-68
2021/12/03 02:01:01;;;;;;;2.43;1.60;;;4.30;99.90;;;;;;5072280;28;20202;-68
2021/12/03 02:03:31;;;;;;;3.07;1.27;;;4.20;99.90;;;;;;5072337;28;20198;-68
2021/12/03 02:05:59;;;;;;;5.03;2.27;;;4.20;99.90;;;;;;5072055;28;20206;-69
2021/12/03 02:08:26;;;;;;;3.20;1.00;;;4.10;99.90;;;;;;5072578;28;20630;-68
2021/12/03 02:10:54;;;;;;;3.60;2.03;;;4.10;99.90;;;;;;5071754;28;20712;-69
2021/12/03 02:13:21;;;;;;;3.17;1.50;;;4.10;99.90;;;;;;5072447;28;20254;-68
2021/12/03 02:15:50;;;;;;;6.70;2.03;;;4.00;99.90;;;;;;5071691;28;20226;-66
2021/12/03 02:18:17;;;;;;;3.30;1.77;;;4.00;99.90;;;;;;5072449;28;20259;-66
2021/12/03 02:20:49;;;;;;;4.43;1.70;;;4.00;99.90;;;;;;5071678;28;20210;-66
2021/12/03 02:23:16;;;;;;;4.63;1.77;;;3.90;1.00;;;;;;5072159;28;20296;-67
2021/12/03 02:25:45;;;;;;;5.37;1.67;;;3.90;1.00;;;;;;5071606;28;20202;-67
2021/12/03 02:28:13;;;;;;;5.83;2.43;;;3.90;1.00;;;;;;5071880;28;20206;-67
2021/12/03 02:30:40;;;;;;;2.33;1.63;;;3.90;1.00;;;;;;5071795;28;20275;-67
2021/12/03 02:33:07;;;;;;;4.57;2.60;;;3.90;1.00;;;;;;5072037;28;20293;-67
2021/12/03 02:35:36;;;;;;;4.87;2.03;;;3.90;1.00;;;;;;5071771;28;20226;-67
2021/12/03 02:38:04;;;;;;;6.97;2.53;;;3.80;1.00;;;;;;5072263;28;20206;-68
2021/12/03 02:40:31;;;;;;;3.40;1.37;;;3.80;1.00;;;;;;5071740;28;20259;-69
2021/12/03 02:42:58;;;;;;;4.40;2.53;;;3.70;1.00;;;;;;5071364;28;20202;-68
2021/12/03 02:45:26;;;;;;;8.93;2.77;;;3.60;1.00;;;;;;5071963;28;20209;-69
2021/12/03 02:47:53;;;;;;;5.67;2.83;;;3.60;1.00;;;;;;5071259;28;20214;-69
2021/12/03 02:50:21;;;;;;;4.10;1.80;;;3.60;1.00;;;;;;5071728;28;20271;-69
2021/12/03 02:52:49;;;;;;;4.90;1.80;;;3.60;1.00;;;;;;5071037;28;20260;-71
2021/12/03 02:55:18;;;;;;;3.97;1.83;;;3.60;1.00;;;;;;5071250;28;20233;-68
2021/12/03 02:57:46;;;;;;;4.70;1.73;;;3.60;1.00;;;;;;5071350;28;20580;-68
2021/12/03 03:00:15;;;;;;;5.23;2.97;;;3.60;1.00;;;;;;5071400;28;20267;-68
2021/12/03 03:02:43;;;;;;;4.77;2.07;;;3.50;1.00;;;;;;5070950;28;20224;-68
2021/12/03 03:05:11;;;;;;;7.40;3.33;;;3.50;1.00;;;;;;5071357;28;20264;-68
2021/12/03 03:07:38;;;;;;;4.77;2.60;;;3.50;1.00;;;;;;5070960;28;20255;-69
2021/12/03 03:10:09;;;;;;;3.07;1.80;;;3.50;1.00;;;;;;5071062;28;20739;-68
2021/12/03 03:12:38;;;;;;;4.93;2.20;;;3.40;1.00;;;;;;5071200;28;20285;-68
2021/12/03 03:15:07;;;;;;;4.43;2.30;;;3.40;1.00;;;;;;5070499;28;20203;-68
2021/12/03 03:17:35;;;;;;;5.10;1.90;;;3.40;1.00;;;;;;5071114;28;20198;-69
2021/12/03 03:20:02;;;;;;;5.87;2.10;;;3.40;1.00;;;;;;5071199;28;20206;-68
2021/12/03 03:22:30;;;;;;;8.27;3.43;;;3.40;1.00;;;;;;5071229;28;20680;-68
2021/12/03 03:24:59;;;;;;;6.07;1.80;;;3.40;1.00;;;;;;5070637;28;20428;-68
2021/12/03 03:27:28;;;;;;;6.17;1.93;;;3.30;1.00;;;;;;5070925;28;20656;-68
2021/12/03 03:29:57;;;;;;;3.23;2.67;;;3.30;1.00;;;;;;5070409;28;20244;-68
2021/12/03 03:32:24;;;;;;;4.00;2.67;;;3.20;1.00;;;;;;5071058;28;20202;-68
2021/12/03 03:34:52;;;;;;;5.97;2.43;;;3.20;1.00;;;;;;5070504;28;20248;-68
2021/12/03 03:37:19;;;;;;;5.80;2.60;;;3.10;1.00;;;;;;5070561;28;20234;-68
2021/12/03 03:39:46;;;;;;;4.00;3.50;;;3.10;1.00;;;;;;5070361;28;20666;-68
2021/12/03 03:42:14;;;;;;;7.70;3.73;;;3.10;1.00;;;;;;5070878;28;20251;-68
2021/12/03 03:44:42;;;;;;;6.87;3.37;;;3.10;1.00;;;;;;5070490;28;20259;-68
2021/12/03 03:47:12;;;;;;;5.30;2.87;;;3.20;1.00;;;;;;5070668;28;20221;-68
2021/12/03 03:49:40;;;;;;;3.67;2.63;;;3.10;1.00;;;;;;5070284;28;20237;-68
2021/12/03 03:52:08;;;;;;;7.13;2.93;;;3.10;1.00;;;;;;5070606;28;20205;-69
2021/12/03 03:54:35;;;;;;;4.27;2.53;;;3.10;1.00;;;;;;5070883;28;20202;-70
2021/12/03 03:57:03;;;;;;;8.67;3.80;;;3.10;1.00;;;;;;5071120;28;20234;-69
2021/12/03 03:59:31;;;;;;;3.93;2.90;;;3.00;1.00;;;;;;5070952;28;20727;-69
2021/12/03 04:01:58;;;;;;;4.87;2.67;;;3.00;1.00;;;;;;5070158;28;20731;-69
2021/12/03 04:04:26;;;;;;;8.23;3.10;;;3.00;1.00;;;;;;5070857;28;20704;-69
2021/12/03 04:06:53;;;;;;;9.67;2.83;;;2.90;1.00;;;;;;5070175;28;20684;-67
2021/12/03 04:09:21;;;;;;;3.63;2.07;;;2.90;1.00;;;;;;5070732;28;20263;-68
2021/12/03 04:11:48;;;;;;;5.23;2.37;;;2.90;1.00;;;;;;5070249;28;20208;-68
2021/12/03 04:14:15;;;;;;;13.80;5.83;;;2.80;1.00;;;;;;5070537;28;20259;-68
2021/12/03 04:16:42;;;;;;;4.07;2.47;;;2.80;1.00;;;;;;5069799;28;20713;-68
2021/12/03 04:19:09;;;;;;;7.43;2.57;;;2.80;1.00;;;;;;5070787;28;20248;-68
2021/12/03 04:21:38;;;;;;;5.17;3.00;;;2.80;1.00;;;;;;5070464;28;20206;-68
2021/12/03 04:24:05;;;;;;;5.37;3.10;;;2.80;1.00;;;;;;5070604;28;20202;-68
2021/12/03 04:26:32;;;;;;;5.43;2.70;;;2.70;1.00;;;;;;5074430;28;20210;-68
2021/12/03 04:29:00;;;;;;;3.00;2.33;;;2.80;1.00;;;;;;5074109;28;20630;-68
2021/12/03 04:31:28;;;;;;;4.50;3.10;;;2.80;1.00;;;;;;5074515;28;20256;-68
2021/12/03 04:33:56;;;;;;;4.47;3.53;;;2.90;1.00;;;;;;5073807;28;20294;-68
2021/12/03 04:36:23;;;;;;;6.77;4.13;;;2.80;1.00;;;;;;5074006;28;20237;-69
2021/12/03 04:38:51;;;;;;;6.27;3.80;;;2.80;1.00;;;;;;5073843;28;20264;-68
2021/12/03 04:41:19;;;;;;;5.77;3.03;;;2.70;1.00;;;;;;5073835;28;20202;-69
2021/12/03 04:43:46;;;;;;;4.90;3.30;;;2.80;1.00;;;;;;5073563;28;20206;-69
2021/12/03 04:46:13;;;;;;;4.80;2.47;;;2.80;1.00;;;;;;5074246;28;20260;-68
2021/12/03 04:48:40;;;;;;;5.53;3.90;;;2.70;1.00;;;;;;5073250;28;20256;-70
2021/12/03 04:51:07;;;;;;;4.90;2.97;;;2.60;1.00;;;;;;5073739;28;20686;-70
2021/12/03 04:53:34;;;;;;;5.63;3.20;;;2.60;1.00;;;;;;5073939;28;20202;-69
2021/12/03 04:56:03;;;;;;;10.33;4.63;;;2.50;1.00;;;;;;5073706;28;20233;-69
2021/12/03 04:58:30;;;;;;;6.83;3.63;;;2.50;1.00;;;;;;5074022;28;20252;-69
2021/12/03 05:00:58;;;;;;;5.50;3.33;;;2.60;1.00;;;;;;5073351;28;20210;-69
2021/12/03 05:03:26;;;;;;;6.10;3.50;;;2.60;1.00;;;;;;5073884;28;20630;-69
2021/12/03 05:05:55;;;;;;;5.67;3.00;;;2.60;1.00;;;;;;5073063;28;20206;-69
2021/12/03 05:08:26;;;;;;;7.60;4.13;;;2.70;1.00;;;;;;5073577;28;20206;-68
2021/12/03 05:10:54;;;;;;;6.13;3.47;;;2.60;1.00;;;;;;5073154;28;20210;-68
2021/12/03 05:13:26;;;;;;;6.23;3.37;;;2.60;1.00;;;;;;5073468;28;20563;-68
2021/12/03 05:15:53;;;;;;;6.47;4.10;;;2.60;1.00;;;;;;5072805;28;20704;-68
2021/12/03 05:18:22;;;;;;;5.00;4.03;;;2.60;1.00;;;;;;5073588;28;20198;-69
2021/12/03 05:20:51;;;;;;;8.13;5.63;;;2.60;1.00;;;;;;5072823;28;20727;-68
2021/12/03 05:23:19;;;;;;;12.23;6.73;;;2.60;1.00;;;;;;5073263;28;20263;-69
2021/12/03 05:25:47;;;;;;;8.00;4.90;;;2.60;1.00;;;;;;5073097;28;20202;-68
2021/12/03 05:28:15;;;;;;;9.03;4.80;;;2.50;1.00;;;;;;5073332;28;20198;-69
2021/12/03 05:30:44;;;;;;;6.27;4.57;;;2.40;1.00;;;;;;5072943;28;20199;-68
2021/12/03 05:33:11;;;;;;;8.70;5.03;;;2.40;1.00;;;;;;5072974;28;20259;-69
2021/12/03 05:35:39;;;;;;;6.57;5.07;;;2.50;1.00;;;;;;5072554;28;20670;-69
2021/12/03 05:38:06;;;;;;;6.93;4.80;;;2.50;1.00;;;;;;5072513;28;20202;-69
2021/12/03 05:40:33;;;;;;;9.27;5.90;;;2.50;1.00;;;;;;5073224;28;20202;-70
2021/12/03 05:43:01;;;;;;;6.67;4.80;;;2.50;1.00;;;;;;5073042;28;20202;-69
2021/12/03 05:45:29;;;;;;;7.23;5.43;;;2.50;1.00;;;;;;5073029;28;20251;-71
2021/12/03 05:48:00;;;;;;;7.97;5.30;;;2.50;1.00;;;;;;5072130;28;20221;-72
2021/12/03 05:50:27;;;;;;;11.73;5.80;;;2.50;1.00;;;;;;5072917;28;20285;-70
2021/12/03 05:52:57;;;;;;;12.05;6.20;;;2.60;1.00;;;;;;5071852;28;20780;-70
2021/12/03 05:55:24;;;;;;;13.50;5.30;;;2.60;1.00;;;;;;5073062;28;20263;-70
2021/12/03 05:57:51;;;;;;;9.03;6.47;;;2.60;1.00;;;;;;5072336;28;20295;-70
2021/12/03 06:00:21;;;;;;;11.30;6.00;;;2.70;1.00;;;;;;5072716;28;20615;-67
2021/12/03 06:02:48;;;;;;;11.30;5.27;;;2.80;1.00;;;;;;5071919;28;20267;-71
2021/12/03 06:05:16;;;;;;;9.30;4.93;;;2.90;1.00;;;;;;5072443;28;20206;-70
2021/12/03 06:07:43;;;;;;;7.20;5.23;;;2.90;1.00;;;;;;5072105;28;20206;-71
2021/12/03 06:10:10;;;;;;;8.03;5.77;;;2.80;1.00;;;;;;5072573;28;20256;-71
2021/12/03 06:12:37;;;;;;;9.33;6.63;;;2.90;1.00;;;;;;5072056;28;20269;-71
2021/12/03 06:15:04;;;;;;;8.53;6.33;;;2.90;1.00;;;;;;5074100;28;20202;-70
2021/12/03 06:17:32;;;;;;;10.63;6.60;;;2.90;1.00;;;;;;5087220;28;20226;-79
2021/12/03 06:19:59;;;;;;;6.63;5.47;;;2.80;1.00;;;;;;5084031;28;20681;-71
2021/12/03 06:22:31;;;;;;;9.97;6.33;;;2.90;1.00;;;;;;5084316;28;20247;-76
2021/12/03 06:24:58;;;;;;;10.73;6.27;;;2.90;1.00;;;;;;5091932;28;20216;-74
2021/12/03 06:27:25;;;;;;;8.43;6.37;;;2.80;1.00;;;;;;5091747;28;20623;-71
2021/12/03 06:29:53;;;;;;;11.17;5.67;;;2.80;1.00;;;;;;5091712;28;20209;-67
2021/12/03 06:32:20;;;;;;;8.93;5.97;;;2.80;1.00;;;;;;5091546;28;20205;-72
2021/12/03 06:34:47;;;;;;;9.70;5.77;;;2.70;1.00;;;;;;5088176;28;20205;-72
2021/12/03 06:37:14;;;;;;;8.73;6.60;;;2.60;1.00;;;;;;5091477;28;20255;-70
2021/12/03 06:39:43;;;;;;;9.53;6.67;;;2.60;1.00;;;;;;5091286;28;20222;-70
2021/12/03 06:42:10;;;;;;;10.67;6.47;;;2.70;1.00;;;;;;5091844;28;20209;-69
2021/12/03 06:44:37;;;;;;;9.23;6.20;;;2.70;1.00;;;;;;5091404;28;20245;-70
2021/12/03 06:47:05;;;;;;;10.37;6.13;;;2.80;1.00;;;;;;5091220;28;20217;-68
2021/12/03 06:49:33;;;;;;;9.17;5.53;;;2.70;1.00;;;;;;5090904;28;20730;-69
2021/12/03 06:52:04;;;;;;;8.87;5.77;;;2.70;1.00;;;;;;5091526;28;20292;-69
2021/12/03 06:54:33;;;;;;;12.00;7.00;;;2.50;1.00;;;;;;5091899;28;20584;-69
2021/12/03 06:57:02;;;;;;;9.63;5.60;;;2.50;1.00;;;;;;5091165;28;20260;-69
2021/12/03 06:59:29;;;;;;;9.97;6.03;;;2.50;1.00;;;;;;5091790;28;20210;-69
2021/12/03 07:01:57;;;;;;;10.40;7.17;;;2.50;1.00;;;;;;5091141;28;20206;-69
2021/12/03 07:04:24;;;;;;;9.03;6.67;;;2.50;1.00;;;;;;5091218;28;21027;-69
2021/12/03 07:06:51;;;;;;;8.97;5.90;;;2.50;1.00;;;;;;5090795;28;20673;-69
2021/12/03 07:09:19;;;;;;;8.67;6.80;;;2.50;1.00;;;;;;5091336;28;20262;-75
2021/12/03 07:11:46;;;;;;;14.67;6.80;;;2.70;1.00;;;;;;5084468;28;20263;-69
2021/12/03 07:14:14;;;;;;;9.93;8.53;;;2.90;1.00;;;;;;5091296;28;20201;-69
2021/12/03 07:16:41;;;;;;;7.30;6.00;;;3.00;1.00;;;;;;5090606;28;20225;-68
2021/12/03 07:19:10;;;;;;;8.20;6.17;;;3.00;1.00;;;;;;5091205;28;20205;-69
2021/12/03 07:21:37;;;;;;;10.43;6.60;;;3.00;1.00;;;;;;5090655;28;20259;-68
2021/12/03 07:24:05;;;;;;;10.33;6.07;;;3.00;1.00;;;;;;5090858;28;20205;-69
2021/12/03 07:26:32;;;;;;;9.60;6.47;;;2.90;1.00;;;;;;5091532;28;20201;-69
2021/12/03 07:28:59;;;;;;;7.07;5.63;;;2.80;1.00;;;;;;5090484;28;20742;-73
2021/12/03 07:31:27;;;;;;;12.87;6.47;;;2.80;1.00;;;;;;5090881;28;20322;-74
2021/12/03 07:33:55;;;;;;;8.77;6.13;;;2.70;1.00;;;;;;5090311;28;20676;-69
2021/12/03 07:36:23;;;;;;;9.07;5.83;;;2.80;1.00;;;;;;5090774;28;20206;-72
2021/12/03 07:38:50;;;;;;;7.93;6.33;;;2.80;1.00;;;;;;5080343;28;20263;-69
2021/12/03 07:41:17;;;;;;;12.07;8.40;;;2.80;1.00;;;;;;5083884;28;20205;-69
2021/12/03 07:43:46;;;;;;;7.93;6.13;;;2.70;1.00;;;;;;5077625;28;20210;-72
2021/12/03 07:46:15;;;;;;;8.37;6.03;;;2.70;1.00;;;;;;5073439;28;20263;-71
2021/12/03 07:48:46;;;;;;;13.93;7.73;;;2.70;1.00;;;;;;5086403;28;20217;-72
2021/12/03 07:51:14;;;;;;;8.23;6.73;;;2.70;1.00;;;;;;5089361;28;20628;-71
2021/12/03 07:53:41;;;;;;;9.70;6.93;;;2.80;1.00;;;;;;5089647;28;20212;-71
2021/12/03 07:56:09;;;;;;;9.73;8.27;;;3.00;1.00;;;;;;5090183;28;20677;-71
2021/12/03 07:58:36;;;;;;;10.23;8.63;;;3.10;1.00;;;;;;5088870;28;20721;-70
2021/12/03 08:01:03;;;;;;;9.13;6.50;;;3.20;1.00;;;;;;5082286;28;20681;-72
2021/12/03 08:03:30;;;;;;;13.40;6.77;;;3.20;1.00;;;;;;5079190;28;20201;-75
2021/12/03 08:06:05;;;;;;;11.60;8.27;;;3.40;1.00;;;;;;5086996;28;20221;-74
2021/12/03 08:08:32;;;;;;;15.97;8.50;;;3.80;1.00;;;;;;5087917;28;20261;-74
2021/12/03 08:10:59;;;;;;;11.50;7.60;;;4.30;1.00;;;;;;5070378;28;20206;-74
2021/12/03 08:13:26;;;;;;;11.60;7.03;;;4.40;1.00;;;;;;5069974;28;20206;-74
2021/12/03 08:15:53;;;;;;;10.57;7.80;;;4.50;1.00;;;;;;5070053;28;20256;-74
2021/12/03 08:18:21;;;;;;;9.60;6.77;;;4.80;99.90;;;;;;5070433;28;20229;-75
2021/12/03 08:20:47;;;;;;;7.93;6.30;;;5.00;99.90;;;;;;5070618;28;20293;-74
2021/12/03 08:23:17;;;;;;;11.77;6.10;;;5.30;99.90;;;;;;5081902;28;20592;-74
2021/12/03 08:25:45;;;;;;;11.10;6.60;;;6.10;99.90;;;;;;5076705;28;20584;-75
2021/12/03 08:28:12;;;;;;;11.83;7.40;;;6.20;99.90;;;;;;5081441;28;20556;-74
2021/12/03 08:30:40;;;;;;;8.83;5.60;;;6.20;99.90;;;;;;5073858;28;20275;-76
2021/12/03 08:33:07;;;;;;;7.80;5.77;;;6.00;99.90;;;;;;5080172;28;20292;-73
2021/12/03 08:35:35;;;;;;;7.57;5.77;;;5.80;99.90;;;;;;5069990;28;20206;-72
2021/12/03 08:38:02;;;;;;;7.03;4.70;;;5.60;99.90;;;;;;5070234;28;20261;-77
2021/12/03 08:40:30;;;;;;;8.33;5.00;;;5.40;99.90;;;;;;5070256;28;20213;-73
2021/12/03 08:42:57;;;;;;;7.60;5.00;;;5.50;99.90;;;;;;5069670;28;20735;-76
2021/12/03 08:45:25;;;;;;;8.70;4.53;;;5.50;99.90;;;;;;5070293;28;20202;-71
2021/12/03 08:47:53;;;;;;;5.40;4.33;;;5.40;99.90;;;;;;5069644;28;20210;-75
2021/12/03 08:50:27;;;;;;;12.70;5.67;;;5.60;99.90;;;;;;5071669;28;20203;-74
2021/12/03 08:53:14;;;;;;;7.77;4.83;;;6.10;99.90;;;;;;5078555;28;20209;-73
2021/12/03 08:55:43;;;;;;;6.10;4.37;;;6.80;99.90;;;;;;5069884;28;20289;-74
2021/12/03 08:58:10;;;;;;;7.33;4.43;;;6.70;99.90;;;;;;5089165;28;20270;-72
2021/12/03 09:00:38;;;;;;;6.50;3.77;;;6.50;99.90;;;;;;5089681;28;20665;-76
2021/12/03 09:03:06;;;;;;;7.53;5.30;;;6.30;99.90;;;;;;5085826;28;20719;-73
2021/12/03 09:05:34;;;;;;;7.90;3.67;;;6.30;99.90;;;;;;5080212;28;20259;-72
2021/12/03 09:08:02;;;;;;;6.30;3.87;;;6.20;99.90;;;;;;5081027;28;20206;-75
2021/12/03 09:10:29;;;;;;;8.73;3.40;;;5.90;99.90;;;;;;5079871;28;20206;-75
2021/12/03 09:12:57;;;;;;;3.43;3.10;;;5.90;99.90;;;;;;5081836;28;20588;-73
2021/12/03 09:15:28;;;;;;;6.43;4.50;;;6.80;99.90;;;;;;5096400;28;20801;-76
2021/12/03 09:20:49;;;;;;;4.33;2.50;;;7.20;99.90;;;;;;5091437;28;20248;-76
2021/12/03 09:23:20;;;;;;;3.97;3.00;;;8.10;99.90;;;;;;5092922;28;20648;-74
2021/12/03 09:25:51;;;;;;;5.60;2.90;;;8.00;99.90;;;;;;5081327;28;20245;-72
2021/12/03 09:28:20;;;;;;;7.73;3.87;;;7.90;99.90;;;;;;5088431;28;20257;-72
2021/12/03 09:30:48;;;;;;;5.27;2.97;;;7.60;99.90;;;;;;5084945;28;20669;-72
2021/12/03 09:33:18;;;;;;;5.17;3.17;;;7.20;99.90;;;;;;5092362;28;20209;-73
2021/12/03 09:35:47;;;;;;;5.30;2.93;;;6.80;99.90;;;;;;5090737;28;20202;-72
2021/12/03 09:38:14;;;;;;;6.23;3.17;;;6.80;99.90;;;;;;5091694;28;20241;-71
2021/12/03 09:40:43;;;;;;;4.93;3.50;;;7.00;99.90;;;;;;5077327;28;20210;-75
2021/12/03 09:43:10;;;;;;;5.10;3.43;;;7.00;99.90;;;;;;5092111;28;20213;-74
2021/12/03 09:45:40;;;;;;;6.90;2.90;;;7.20;99.90;;;;;;5094198;28;20217;-74
2021/12/03 09:48:16;;;;;;;5.83;2.30;;;7.20;99.90;;;;;;5094619;28;20762;-73
2021/12/03 09:50:43;;;;;;;4.87;2.90;;;6.90;99.90;;;;;;5091945;28;20201;-74
2021/12/03 09:53:26;;;;;;;7.77;2.50;;;6.80;99.90;;;;;;5095063;28;20205;-72
2021/12/03 09:55:53;;;;;;;3.13;2.20;;;6.90;99.90;;;;;;5099159;28;20201;-74
2021/12/03 09:58:35;;;;;;;6.23;3.27;;;7.10;99.90;;;;;;5092390;28;20719;-74
2021/12/03 10:01:08;;;;;;;5.17;3.37;;;7.30;99.90;;;;;;5092602;28;20313;-74
2021/12/03 10:03:45;;;;;;;4.67;2.87;;;7.50;99.90;;;;;;5086779;28;20753;-74
2021/12/03 10:12:26;;;;;;;2.33;1.57;;;7.40;99.90;;;;;;5083923;28;20248;-73
2021/12/03 10:15:02;;;;;;;4.20;2.50;;;7.50;99.90;;;;;;5089423;28;20213;-74
2021/12/03 10:17:42;;;;;;;2.10;1.90;;;7.50;99.90;;;;;;5084175;28;20255;-73
2021/12/03 10:29:07;;;;;;;3.23;1.43;;;7.60;99.90;;;;;;5080053;28;20749;-74
2021/12/03 10:34:45;;;;;;;5.67;2.30;;;7.70;99.90;;;;;;5091212;28;20406;-73
2021/12/03 10:40:30;;;;;;;7.47;3.83;;;8.40;99.90;;;;;;5087798;28;20700;-73
2021/12/03 10:43:25;;;;;;;4.63;2.10;;;8.30;99.90;;;;;;5086977;28;20213;-73
2021/12/03 10:46:21;;;;;;;5.57;2.67;;;7.80;99.90;;;;;;5090353;28;21057;-74
2021/12/03 10:48:55;;;;;;;3.00;2.30;;;7.80;99.90;;;;;;5080086;28;20209;-73
2021/12/03 10:51:36;;;;;;;4.30;3.17;;;7.70;99.90;;;;;;5090967;28;20288;-73
2021/12/03 10:54:09;;;;;;;9.30;3.70;;;7.60;99.90;;;;;;5091092;28;20213;-74
2021/12/03 10:56:53;;;;;;;4.30;1.83;;;7.40;99.90;;;;;;5089721;28;20214;-74
2021/12/03 11:05:36;;;;;;;5.50;2.97;;;7.40;99.90;;;;;;5088555;28;20214;-72
2021/12/03 11:08:23;;;;;;;3.70;2.90;;;7.50;99.90;;;;;;5081298;28;20202;-72
2021/12/03 11:33:59;;;;;;;4.07;2.00;;;8.00;99.90;;;;;;5084952;28;20224;-73
2021/12/03 11:45:37;;;;;;;2.43;1.63;;;8.20;99.90;;;;;;5028093;28;20244;-73
2021/12/03 14:09:30;;;;;;;1.27;0.50;;;10.10;99.90;;;;;;5072881;28;20263;-76
2021/12/03 14:52:05;;;;;;;1.00;0.80;;;9.90;99.90;;;;;;5046790;28;20213;-72
2021/12/03 14:57:29;;;;;;;1.50;0.90;;;9.90;99.90;;;;;;5066608;28;20576;-72
2021/12/03 15:00:08;;;;;;;2.07;1.20;;;9.80;99.90;;;;;;5070751;28;20236;-72
2021/12/03 15:02:48;;;;;;;0.70;0.40;;;9.80;99.90;;;;;;5071394;28;20575;-73
2021/12/03 15:05:34;;;;;;;2.13;0.70;;;9.80;99.90;;;;;;5071283;28;20271;-72
2021/12/03 15:08:04;;;;;;;1.77;0.60;;;9.80;99.90;;;;;;5069598;28;20296;-71
2021/12/03 15:10:45;;;;;;;0.90;0.70;;;9.80;99.90;;;;;;5062554;28;20658;-72
2021/12/03 15:13:35;;;;;;;1.93;1.40;;;9.80;99.90;;;;;;5075062;28;20203;-72
2021/12/03 15:24:37;;;;;;;3.13;0.87;;;9.40;99.90;;;;;;5040539;28;20603;-70
2021/12/03 15:30:11;;;;;;;4.83;1.30;;;9.30;99.90;;;;;;5069338;28;20206;-71
2021/12/03 15:32:43;;;;;;;2.40;0.70;;;9.20;99.90;;;;;;5070782;28;20209;-71
2021/12/03 15:35:14;;;;;;;2.87;1.10;;;9.10;99.90;;;;;;5071317;28;20662;-71
2021/12/03 15:37:58;;;;;;;4.93;2.17;;;9.20;99.90;;;;;;5070784;28;20599;-72
2021/12/03 15:41:03;;;;;;;3.90;1.30;;;9.30;99.90;;;;;;5064831;28;20724;-70
2021/12/03 16:05:52;;;;;;;4.83;2.17;;;9.00;99.90;;;;;;5065460;28;20240;-70
2021/12/03 16:08:22;;;;;;;4.97;2.20;;;9.00;99.90;;;;;;5070932;28;20209;-71
2021/12/03 16:11:03;;;;;;;8.33;3.83;;;9.10;99.90;;;;;;5072383;28;20210;-70
2021/12/03 16:13:42;;;;;;;7.60;3.83;;;9.10;99.90;;;;;;5075882;28;20209;-72
2021/12/03 16:25:01;;;;;;;5.30;3.20;;;9.00;99.90;;;;;;5007953;28;20630;-70
2021/12/03 16:44:05;;;;;;;6.30;3.93;;;9.00;99.90;;;;;;5090266;28;20208;-72
2021/12/03 16:46:54;;;;;;;6.97;4.10;;;9.00;99.90;;;;;;5089888;28;20209;-71
2021/12/03 16:52:08;;;;;;;8.20;4.53;;;9.10;99.90;;;;;;5090821;28;20212;-71
2021/12/03 16:54:40;;;;;;;9.10;6.10;;;9.10;99.90;;;;;;5068326;28;20213;-70
2021/12/03 16:57:09;;;;;;;6.50;4.90;;;9.10;99.90;;;;;;5070355;28;20209;-73
2021/12/03 16:59:38;;;;;;;5.20;3.47;;;9.10;99.90;;;;;;5070549;28;20256;-71
2021/12/03 17:02:06;;;;;;;6.77;4.37;;;9.10;99.90;;;;;;5070224;28;20721;-70
2021/12/03 17:07:56;;;;;;;5.80;3.53;;;9.20;99.90;;;;;;5086106;28;20222;-70
2021/12/03 17:47:15;;;;;;;12.67;8.03;;;9.20;99.90;;;;;;5073486;28;20263;-70
2021/12/03 17:49:45;;;;;;;12.83;7.77;;;9.20;99.90;;;;;;5051622;28;20234;-71
2021/12/03 17:55:20;;;;;;;13.90;5.43;;;9.10;99.90;;;;;;5065733;28;20697;-70
2021/12/03 17:57:52;;;;;;;8.60;5.80;;;9.10;99.90;;;;;;5072624;28;20209;-70
2021/12/03 18:00:25;;;;;;;7.40;5.07;;;9.10;99.90;;;;;;5072924;28;20289;-69
2021/12/03 18:02:55;;;;;;;6.60;3.93;;;9.10;99.90;;;;;;5072302;28;20292;-70
2021/12/03 18:05:39;;;;;;;9.60;7.23;;;9.10;99.90;;;;;;5052380;28;20223;-70
2021/12/03 18:08:12;;;;;;;5.90;5.10;;;9.20;99.90;;;;;;5070431;28;20643;-70
2021/12/03 18:10:55;;;;;;;7.77;5.70;;;9.20;99.90;;;;;;5080175;28;20212;-69
2021/12/03 18:13:53;;;;;;;10.23;6.27;;;9.20;99.90;;;;;;5076373;28;20597;-70
2021/12/03 18:52:46;;;;;;;12.00;10.13;;;9.10;99.90;;;;;;5071384;28;20232;-70
2021/12/03 18:55:15;;;;;;;6.70;6.03;;;9.10;99.90;;;;;;5058567;28;20237;-70
2021/12/03 18:57:44;;;;;;;4.43;3.87;;;9.20;99.90;;;;;;5071215;28;20301;-70
2021/12/03 19:00:16;;;;;;;2.90;2.53;;;9.20;99.90;;;;;;5071489;28;20654;-69
2021/12/03 19:02:46;;;;;;;6.40;3.60;;;9.30;99.90;;;;;;5070776;28;20225;-69
2021/12/03 19:05:19;;;;;;;6.03;3.40;;;9.30;99.90;;;;;;5057833;28;20206;-69
2021/12/03 19:07:49;;;;;;;10.40;6.83;;;9.20;99.90;;;;;;5070720;28;20669;-70
2021/12/03 19:10:19;;;;;;;9.33;6.37;;;9.20;99.90;;;;;;5071432;28;20202;-71
2021/12/03 19:12:53;;;;;;;12.00;8.27;;;9.30;99.90;;;;;;5070877;28;20269;-70
2021/12/03 19:15:21;;;;;;;11.83;7.20;;;9.30;99.90;;;;;;5080927;28;20296;-70
2021/12/03 19:17:49;;;;;;;19.03;12.53;;;9.40;99.90;;;;;;5083506;28;20205;-75
2021/12/03 19:20:21;;;;;;;8.13;5.13;;;9.40;99.90;;;;;;5079839;28;20230;-70
2021/12/03 19:22:49;;;;;;;11.23;7.00;;;9.40;99.90;;;;;;5072905;28;20237;-71
2021/12/03 19:25:16;;;;;;;9.83;4.77;;;9.40;99.90;;;;;;5070370;28;20206;-71
2021/12/03 19:27:44;;;;;;;5.67;4.00;;;9.40;99.90;;;;;;5062626;28;20207;-80
2021/12/03 19:30:11;;;;;;;13.37;8.90;;;9.50;99.90;;;;;;5057647;28;20661;-75
2021/12/03 19:32:40;;;;;;;12.43;7.93;;;9.50;99.90;;;;;;5070807;28;20264;-72
2021/12/03 19:35:08;;;;;;;10.73;8.00;;;9.50;99.90;;;;;;5070846;28;20283;-77
2021/12/03 19:37:35;;;;;;;12.73;8.73;;;9.50;99.90;;;;;;5070106;28;20628;-81
2021/12/03 19:40:06;;;;;;;16.10;12.20;;;9.50;99.90;;;;;;5071036;28;20202;-70